KCEF/CEF METAR and TAF weather

Enter ICAO airport designator
Station Type Date Time Source
KCEF METAR 2020/09/18 15:56 UTC NOAA

KCEF 181556Z 36016G20KT 10SM BKN029 OVC042 14/08 A3001 RMK AO2A SLP168 T01420084


Station Type Date Time Source
KCEF Decoded METAR 2020/09/18 15:56 UTC NOAA

Chicopee Falls / Westover Air Force Base, MA, United States (KCEF) 42-12N 072-32W 75M
Sep 18, 2020 - 11:56 AM EDT / 2020.09.18 1556 UTC
Wind: from the N (360 degrees) at 18 MPH (16 KT) gusting to 23 MPH (20 KT):0
Visibility: 10 mile(s):0
Sky conditions: overcast
Temperature: 57.6 F (14.2 C)
Dew Point: 47.1 F (8.4 C)
Relative Humidity: 68%
Pressure (altimeter): 30.01 in. Hg (1016 hPa)
ob: KCEF 181556Z 36016G20KT 10SM BKN029 OVC042 14/08 A3001 RMK AO2A SLP168 T01420084
cycle: 16

Station Type Date Time Source
KCEF TAF 2020/09/18 13:06 UTC NOAA

TAF TAF KCEF 181300Z 1813/1919 36012KT 9999 BKN025 BKN080 520105 QNH2999INS
BECMG 1814/1815 02012G18KT 9999 BKN035 BKN250 520108 QNH2996INS
TEMPO 1816/1824 01015G25KT
BECMG 1904/1905 36012KT 9999 SKC 510103 QNH3015INS
BECMG 1913/1914 01010G15KT 9999 FEW200 QNH3030INS TX18/1820Z TN00/1910Z

Example: see airport list